Faro Airport
CZFA : now visible

Airfield :











YOU CAN JOIN US ON...

 
LOGIN :

Register | Disclaimer

   EN    FR    IT 

 









Legend :    VFR   Marginal VFR   IFR   Intensive IFR   Very Intensive IFR
Visi :
Ceiling :
>= 8 km
>= 3000ft
5 to 8 km
1000 to 3000 ft
1500m to 5 km
500 to 1000 ft
800 to 1500m
200 to 500 ft
< 800m
< 200 ft
Symbols :   Thunderstorms  Fog  Heavy snow  Heavy precipitations  Wind > 20 kt






- Airport Elevation : 2351 ft
- IATA code : ZFA


CZFA - Faro

CURRENT METAR :
  • 291600Z 12012KT 080V150 30SM SCT110 BKN130 BKN210 15/M00 A3010 RMK AC3AC2CC2 SLP207 DENSITY ALT 2700FT

EXPIRED METARs :
  • 291500Z 13010G16KT 30SM FEW110 SCT130 BKN210 13/M00 A3011 RMK AC2AC2CC2 SLP212 DENSITY ALT 2400FT
  • 291400Z 13008KT 30SM SCT110 BKN210 11/M00 A3011 RMK AC4CC3 SLP213

TAF TAF CZFA
Valid from the 29 at 16:00 until the 29 at 22:00 UTC


291538Z 2916/2922 13010G20KT P6SM SCT120 BKN220 RMK NXT FCST BY 291800Z
CZEG FIR / North America



MET'MAP, your aeronautical weather chart ! - Copyright ORBIFLY December 2007 - Disclaimer

ORBIFLY MET'MAP TEAM :

Programming & Development : Alexandra Zaïnal
Concept & original design : Baudouin d'Aumeries
Assistance for programming : Marc-Olivier Méhu
Technical & hardware support : Manuel Goepfert

Contact : metmap@orbifly.com




SOURCES & CREDITS :

   NOAA       Earth
Advisory